Main page
METAR-TAF:

METAR-TAF

Airports :

Cristiano Ronaldo International Airport

Funchal, Madeira, Portugal

latitude: 32-41-52N, longitude: 016-46-28W, elevation: 59 m

Current weather observation

The report was made 27 minutes ago, at 23:00 UTC
Wind 7 kt from the North, varying between North and Northeast
Temperature 15°C
Humidity 59%
Pressure 1028 hPa
Visibility 10 km or more
Scattered clouds at a height of 1500 ft
Broken clouds at a height of 3000 ft

METAR: LPMA 212300Z 01007KT 350V050 9999 SCT015 BKN030 15/07 Q1028

Time: 23:27 (23:27 UTC)

Forecast

The report was made 6 hours and 27 minutes ago, at 17:00 UTC
Forecast valid from 21 at 18 UTC to 22 at 18 UTC
Wind 12 kt from the North
Visibility 10 km or more
Scattered clouds at a height of 1500 ft
Broken clouds at a height of 3000 ft
Temporary
from 21 at 18 UTC to 21 at 24 UTC
Wind 18 kt from the North/Northeast with gusts up to 28 kt

TAF: LPMA 211700Z 2118/2218 01012KT 9999 SCT015 BKN030 TEMPO 2118/2124 02018G28KT

Weather observations and forecasts of more than 4000 airports (METAR and TAF reports).

The available stations are represented by yellow and red dots on the map.

Hover mouse over dot to see the name of the station.

Then click to see weather observations and forecasts.

To change the map : click on the green buttons with a black cross to zoom in, on the green button with a dash to zoom out, or on the green arrows for adjacent maps.


METAR-TAF: